Time;durP1;ratioP1;P1;durP2;ratioP2;P2;SDS_P1;SDS_P2;PMS_P1;PMS_P2;Temp;Humidity;BMP_temperature;BMP_pressure;BME280_temperature;BME280_humidity;BME280_pressure;Samples;Min_cycle;Max_cycle;Signal;HPM_P1;HPM_P2
2023/07/24 00:08:50;;;;;;;10.20;4.20;;;;;;;;;;5052652;28;20044;-79
2023/07/24 00:11:19;;;;;;;12.57;4.32;;;;;;;;;;5081072;28;20105;-79
2023/07/24 00:13:59;;;;;;;10.82;4.70;;;;;;;;;;5071928;28;20116;-79
2023/07/24 00:16:48;;;;;;;10.43;4.40;;;;;;;;;;5084486;28;20028;-79
2023/07/24 00:19:21;;;;;;;12.15;4.30;;;;;;;;;;5082800;28;20040;-79
2023/07/24 00:21:47;;;;;;;10.48;4.20;;;;;;;;;;5088424;28;20032;-79
2023/07/24 00:25:13;;;;;;;;;;;;;;;;;;;;;
2023/07/24 00:28:36;;;;;;;7.63;4.20;;;;;;;;;;5050594;28;20043;-79
2023/07/24 00:31:09;;;;;;;9.90;4.13;;;;;;;;;;5056350;28;20051;-79
2023/07/24 00:33:34;;;;;;;;;;;;;;;;;;5087013;28;20600;-80
2023/07/24 00:36:00;;;;;;;11.68;3.92;;;;;;;;;;5096738;28;19917;-79
2023/07/24 00:38:36;;;;;;;;;;;;;;;;;;;;;
2023/07/24 00:43:53;;;;;;;9.18;3.92;;;;;;;;;;4980772;28;20685;-79
2023/07/24 00:46:28;;;;;;;8.30;3.67;;;;;;;;;;5054299;28;20047;-79
2023/07/24 00:48:56;;;;;;;8.00;4.20;;;;;;;;;;5075422;28;20074;-79
2023/07/24 00:51:22;;;;;;;8.90;3.95;;;;;;;;;;5084640;28;20074;-79
2023/07/24 00:53:48;;;;;;;9.35;3.47;;;;;;;;;;5084776;28;20509;-79
2023/07/24 00:56:13;;;;;;;9.95;3.53;;;;;;;;;;5074071;28;20477;-79
2023/07/24 00:58:39;;;;;;;9.98;4.13;;;;;;;;;;5082454;28;20126;-79
2023/07/24 01:01:10;;;;;;;9.48;4.03;;;;;;;;;;5087884;28;20032;-79
2023/07/24 01:03:36;;;;;;;7.82;3.75;;;;;;;;;;5075595;28;20037;-79
2023/07/24 01:06:02;;;;;;;6.82;3.60;;;;;;;;;;5080908;28;20036;-79
2023/07/24 01:08:28;;;;;;;9.38;4.00;;;;;;;;;;5078754;28;20554;-79
2023/07/24 01:14:31;;;;;;;9.02;3.72;;;;;;;;;;5071904;28;20054;-79
2023/07/24 01:17:04;;;;;;;6.68;3.53;;;;;;;;;;5077075;28;20040;-79
2023/07/24 01:19:29;;;;;;;10.60;3.17;;;;;;;;;;5061456;28;20032;-79
2023/07/24 01:22:14;;;;;;;7.25;2.35;;;;;;;;;;5096564;28;20035;-79
2023/07/24 01:25:39;;;;;;;;;;;;;;;;;;;;;
2023/07/24 01:28:15;;;;;;;6.90;2.15;;;;;;;;;;4992412;28;20040;-79
2023/07/24 01:31:01;;;;;;;5.00;2.00;;;;;;;;;;5062471;28;20013;-79
2023/07/24 01:33:32;;;;;;;3.47;1.90;;;;;;;;;;5058029;28;20876;-79
2023/07/24 01:36:00;;;;;;;5.32;1.90;;;;;;;;;;5061715;28;20121;-79
2023/07/24 01:38:36;;;;;;;3.10;1.88;;;;;;;;;;5064124;28;20040;-79
2023/07/24 01:41:05;;;;;;;2.72;1.75;;;;;;;;;;5062117;28;20037;-79
2023/07/24 01:43:32;;;;;;;3.60;2.08;;;;;;;;;;5063000;28;20066;-79
2023/07/24 01:46:03;;;;;;;3.75;1.80;;;;;;;;;;5063943;28;20036;-79
2023/07/24 01:48:28;;;;;;;4.22;2.00;;;;;;;;;;5057987;28;20040;-79
2023/07/24 01:50:54;;;;;;;5.60;2.28;;;;;;;;;;5047742;28;20056;-79
2023/07/24 01:57:18;;;;;;;5.25;2.50;;;;;;;;;;5013801;28;20040;-79
2023/07/24 01:59:44;;;;;;;4.13;2.90;;;;;;;;;;5029439;28;20618;-79
2023/07/24 02:02:10;;;;;;;6.70;2.38;;;;;;;;;;5034939;28;20037;-79
2023/07/24 02:05:08;;;;;;;5.53;2.20;;;;;;;;;;5043794;28;20090;-79
2023/07/24 02:07:34;;;;;;;4.28;2.30;;;;;;;;;;5040777;28;20021;-79
2023/07/24 02:10:35;;;;;;;4.18;2.20;;;;;;;;;;5039067;28;20021;-79
2023/07/24 02:13:14;;;;;;;5.10;2.20;;;;;;;;;;5041445;28;20075;-79
2023/07/24 02:15:40;;;;;;;4.88;2.38;;;;;;;;;;5042138;28;20252;-79
2023/07/24 02:18:30;;;;;;;5.68;2.45;;;;;;;;;;5053687;28;20041;-79
2023/07/24 02:20:55;;;;;;;5.53;2.28;;;;;;;;;;5063120;28;20060;-79
2023/07/24 02:23:21;;;;;;;8.80;3.65;;;;;;;;;;5049454;28;20045;-79
2023/07/24 02:25:59;;;;;;;7.57;3.60;;;;;;;;;;5037826;28;20079;-79
2023/07/24 02:28:28;;;;;;;12.35;3.97;;;;;;;;;;5041787;28;20013;-79
2023/07/24 02:30:57;;;;;;;11.70;3.88;;;;;;;;;;5031331;28;20044;-79
2023/07/24 02:33:23;;;;;;;6.68;3.25;;;;;;;;;;5033284;28;20032;-79
2023/07/24 02:36:10;;;;;;;10.55;3.58;;;;;;;;;;5054761;28;20032;-79
2023/07/24 02:38:36;;;;;;;10.35;4.15;;;;;;;;;;5047072;28;20030;-79
2023/07/24 02:41:05;;;;;;;8.15;3.90;;;;;;;;;;5034734;28;20033;-79
2023/07/24 02:43:34;;;;;;;8.70;3.88;;;;;;;;;;5063773;28;20025;-79
2023/07/24 02:46:25;;;;;;;9.77;4.45;;;;;;;;;;5042654;28;20022;-79
2023/07/24 02:48:54;;;;;;;11.93;4.28;;;;;;;;;;5057547;28;20840;-79
2023/07/24 02:51:19;;;;;;;9.60;4.10;;;;;;;;;;5068850;28;20033;-79
2023/07/24 02:54:11;;;;;;;7.90;3.72;;;;;;;;;;5062917;28;20048;-79
2023/07/24 02:56:40;;;;;;;7.85;3.90;;;;;;;;;;5060654;28;20041;-79
2023/07/24 02:59:06;;;;;;;8.30;3.83;;;;;;;;;;5064482;28;20029;-79
2023/07/24 03:01:45;;;;;;;;;;;;;;;;;;;;;
2023/07/24 03:10:51;;;;;;;5.35;2.58;;;;;;;;;;5036873;28;20464;-79
2023/07/24 03:13:19;;;;;;;2.60;1.63;;;;;;;;;;5062055;28;20012;-79
2023/07/24 03:16:09;;;;;;;2.63;1.70;;;;;;;;;;5056523;28;20597;-79
2023/07/24 03:22:14;;;;;;;;;;;;;;;;;;;;;
2023/07/24 03:28:10;;;;;;;2.88;1.45;;;;;;;;;;5054780;28;20458;-79
2023/07/24 03:30:37;;;;;;;5.35;1.90;;;;;;;;;;5055731;28;20696;-79
2023/07/24 03:33:07;;;;;;;4.90;1.63;;;;;;;;;;5060871;28;20033;-79
2023/07/24 03:35:33;;;;;;;2.55;1.83;;;;;;;;;;5062642;28;20057;-79
2023/07/24 03:39:12;;;;;;;3.50;1.70;;;;;;;;;;5059599;28;20079;-79
2023/07/24 03:42:05;;;;;;;3.45;1.80;;;;;;;;;;5043841;28;20044;-79
2023/07/24 03:44:30;;;;;;;2.35;1.45;;;;;;;;;;5018663;28;20033;-79
2023/07/24 03:46:56;;;;;;;2.95;1.55;;;;;;;;;;5058555;28;20048;-79
2023/07/24 03:49:22;;;;;;;2.92;1.80;;;;;;;;;;5082565;28;20020;-79
2023/07/24 03:55:11;;;;;;;3.45;1.77;;;;;;;;;;5034841;28;20404;-79
2023/07/24 04:01:25;;;;;;;5.40;2.38;;;;;;;;;;4993627;28;20041;-79
2023/07/24 04:03:54;;;;;;;4.65;2.38;;;;;;;;;;5002553;28;20041;-79
2023/07/24 04:06:22;;;;;;;5.57;2.33;;;;;;;;;;5057174;28;20044;-79
2023/07/24 04:08:48;;;;;;;7.82;3.10;;;;;;;;;;5082014;28;20089;-79
2023/07/24 04:17:39;;;;;;;;;;;;;;;;;;;;;
2023/07/24 04:20:06;;;;;;;4.90;2.42;;;;;;;;;;5081421;28;20036;-79
2023/07/24 04:26:00;;;;;;;5.97;2.25;;;;;;;;;;5079452;28;20626;-79
2023/07/24 04:28:25;;;;;;;7.10;2.75;;;;;;;;;;5086831;28;20130;-79
2023/07/24 04:31:05;;;;;;;4.93;2.63;;;;;;;;;;5069745;28;20035;-79
2023/07/24 04:33:31;;;;;;;5.63;2.88;;;;;;;;;;5079048;28;20023;-79
2023/07/24 04:39:41;;;;;;;;;;;;;;;;;;;;;
2023/07/24 04:42:07;;;;;;;3.00;1.92;;;;;;;;;;5077870;28;20040;-79
2023/07/24 04:44:35;;;;;;;3.97;1.90;;;;;;;;;;5081515;28;20063;-79
2023/07/24 04:47:42;;;;;;;2.53;1.55;;;;;;;;;;5080898;28;20050;-79
2023/07/24 04:50:07;;;;;;;3.80;1.77;;;;;;;;;;5068931;28;20044;-79
2023/07/24 04:52:33;;;;;;;3.33;1.80;;;;;;;;;;5082816;28;20485;-79
2023/07/24 04:54:58;;;;;;;3.25;1.90;;;;;;;;;;5084501;28;20107;-79
2023/07/24 04:57:24;;;;;;;3.40;1.65;;;;;;;;;;5081593;28;20067;-79
2023/07/24 04:59:50;;;;;;;2.80;1.67;;;;;;;;;;5076433;28;20044;-79
2023/07/24 05:02:16;;;;;;;3.05;1.60;;;;;;;;;;5078305;28;20445;-79
2023/07/24 05:09:01;;;;;;;3.50;1.70;;;;;;;;;;4978569;28;20228;-79
2023/07/24 05:11:27;;;;;;;2.58;1.77;;;;;;;;;;4993206;28;20017;-79
2023/07/24 05:13:53;;;;;;;3.17;1.83;;;;;;;;;;5087670;28;20452;-79
2023/07/24 05:19:35;;;;;;;4.53;1.73;;;;;;;;;;4975187;28;20033;-79
2023/07/24 05:22:13;;;;;;;3.08;1.83;;;;;;;;;;4978860;28;20109;-79
2023/07/24 05:34:39;;;;;;;4.38;2.70;;;;;;;;;;4947442;28;20035;-79
2023/07/24 05:37:13;;;;;;;2.83;2.00;;;;;;;;;;5020921;28;20037;-79
2023/07/24 05:40:03;;;;;;;9.77;2.05;;;;;;;;;;5070802;28;20062;-79
2023/07/24 05:42:38;;;;;;;4.55;1.98;;;;;;;;;;5077166;28;20126;-78
2023/07/24 05:45:05;;;;;;;6.00;2.15;;;;;;;;;;5080242;28;20459;-79
2023/07/24 05:48:03;;;;;;;4.95;2.10;;;;;;;;;;5074888;28;20066;-78
2023/07/24 05:54:23;;;;;;;3.58;2.10;;;;;;;;;;5056666;28;20093;-79
2023/07/24 05:57:48;;;;;;;6.60;2.75;;;;;;;;;;5062954;28;20035;-79
2023/07/24 06:00:49;;;;;;;5.78;2.70;;;;;;;;;;5065205;28;20481;-79
2023/07/24 06:03:38;;;;;;;4.28;2.85;;;;;;;;;;5069114;28;20077;-79
2023/07/24 06:10:16;;;;;;;4.70;2.85;;;;;;;;;;5040750;28;20047;-79
2023/07/24 06:12:41;;;;;;;6.38;3.03;;;;;;;;;;5071112;28;20047;-79
2023/07/24 06:15:10;;;;;;;3.78;2.67;;;;;;;;;;5079080;28;20475;-79
2023/07/24 06:21:21;;;;;;;5.47;2.90;;;;;;;;;;4972456;28;20134;-79
2023/07/24 06:23:57;;;;;;;5.60;2.70;;;;;;;;;;5073120;28;20040;-79
2023/07/24 06:26:48;;;;;;;3.67;2.70;;;;;;;;;;5026048;28;20049;-79
2023/07/24 06:29:34;;;;;;;4.72;2.50;;;;;;;;;;5034094;28;20718;-78
2023/07/24 06:32:03;;;;;;;5.40;2.55;;;;;;;;;;5015211;28;20151;-79
2023/07/24 06:34:29;;;;;;;3.70;2.47;;;;;;;;;;5008996;28;20068;-79
2023/07/24 06:37:00;;;;;;;5.55;2.70;;;;;;;;;;5022864;28;20045;-79
2023/07/24 06:39:29;;;;;;;6.25;3.08;;;;;;;;;;5006274;28;20663;-79
2023/07/24 06:41:55;;;;;;;4.07;2.70;;;;;;;;;;5047126;28;20823;-79
2023/07/24 06:44:30;;;;;;;4.45;2.28;;;;;;;;;;5024912;28;20046;-79
2023/07/24 06:46:59;;;;;;;3.78;2.50;;;;;;;;;;5024955;28;20071;-79
2023/07/24 06:49:27;;;;;;;4.70;2.45;;;;;;;;;;5011546;28;20049;-79
2023/07/24 06:55:25;;;;;;;4.45;2.17;;;;;;;;;;4954348;28;20076;-79
2023/07/24 07:01:06;;;;;;;;;;;;;;;;;;;;;
2023/07/24 07:03:34;;;;;;;5.35;2.55;;;;;;;;;;5067018;28;20072;-79
2023/07/24 07:06:01;;;;;;;4.10;2.17;;;;;;;;;;5072601;28;20051;-79
2023/07/24 07:08:27;;;;;;;4.35;2.50;;;;;;;;;;5074145;28;20098;-79
2023/07/24 07:11:00;;;;;;;4.20;2.40;;;;;;;;;;5083638;28;20041;-79
2023/07/24 07:13:29;;;;;;;3.33;2.15;;;;;;;;;;5063417;28;20842;-79
2023/07/24 07:16:02;;;;;;;8.90;2.50;;;;;;;;;;5061810;28;20040;-79
2023/07/24 07:19:09;;;;;;;;;;;;;;;;;;;;;
2023/07/24 07:21:55;;;;;;;5.43;2.35;;;;;;;;;;4970739;28;20036;-79
2023/07/24 07:24:21;;;;;;;3.83;2.47;;;;;;;;;;4983654;28;20049;-79
2023/07/24 07:29:45;;;;;;;4.78;2.53;;;;;;;;;;4977824;28;20054;-79
2023/07/24 07:32:19;;;;;;;6.30;2.90;;;;;;;;;;5045120;28;20043;-79
2023/07/24 07:35:03;;;;;;;6.82;2.78;;;;;;;;;;5059451;28;20051;-79
2023/07/24 07:38:25;;;;;;;;;;;;;;;;;;;;;
2023/07/24 07:43:58;;;;;;;4.53;2.50;;;;;;;;;;4976341;28;20560;-79
2023/07/24 07:54:01;;;;;;;4.32;2.20;;;;;;;;;;5016224;28;20056;-79
2023/07/24 07:56:28;;;;;;;3.92;2.17;;;;;;;;;;5037617;28;20048;-79
2023/07/24 07:59:47;;;;;;;3.13;1.95;;;;;;;;;;5038071;28;20033;-79
2023/07/24 08:02:13;;;;;;;3.97;2.63;;;;;;;;;;5052001;28;20112;-79
2023/07/24 08:07:54;;;;;;;7.93;2.90;;;;;;;;;;5034403;28;20818;-79
2023/07/24 08:34:28;;;;;;;6.82;3.20;;;;;;;;;;4882575;29;20067;-79
2023/07/24 08:44:26;;;;;;;10.00;4.18;;;;;;;;;;4919786;29;20043;-79
2023/07/24 10:30:47;;;;;;;4.80;2.10;;;;;;;;;;4866240;29;20055;-79
2023/07/24 10:37:28;;;;;;;4.55;2.30;;;;;;;;;;4872939;29;21040;-79
2023/07/24 10:50:40;;;;;;;4.40;2.50;;;;;;;;;;4909117;28;20054;-79
2023/07/24 11:30:51;;;;;;;;;;;;;;;;;;;;;
2023/07/24 12:04:04;;;;;;;4.95;2.63;;;;;;;;;;5029965;28;20056;-79
2023/07/24 12:07:09;;;;;;;4.85;2.60;;;;;;;;;;5027647;28;20041;-80
2023/07/24 12:16:46;;;;;;;4.55;2.72;;;;;;;;;;4952424;28;20030;-79
2023/07/24 12:19:36;;;;;;;5.00;3.00;;;;;;;;;;4941863;28;20043;-79
2023/07/24 12:33:06;;;;;;;4.60;3.05;;;;;;;;;;4899655;29;20651;-79
2023/07/24 12:42:15;;;;;;;7.07;3.65;;;;;;;;;;4870660;29;20083;-80
2023/07/24 13:02:08;;;;;;;2.92;1.70;;;;;;;;;;4950514;28;20061;-79
2023/07/24 13:29:26;;;;;;;;;;;;;;;;;;;;;
2023/07/24 13:31:59;;;;;;;3.22;1.90;;;;;;;;;;4860466;29;20576;-79
2023/07/24 13:35:02;;;;;;;4.07;2.17;;;;;;;;;;4957278;28;20056;-79
2023/07/24 13:37:49;;;;;;;2.95;2.03;;;;;;;;;;4999454;28;20051;-79
2023/07/24 13:40:42;;;;;;;3.30;2.03;;;;;;;;;;5012014;28;20064;-79
2023/07/24 13:50:30;;;;;;;;;;;;;;;;;;;;;
2023/07/24 13:53:51;;;;;;;2.17;1.70;;;;;;;;;;5043710;28;20040;-78
2023/07/24 13:56:50;;;;;;;2.03;1.40;;;;;;;;;;5047063;28;20115;-79
2023/07/24 14:02:44;;;;;;;3.05;1.70;;;;;;;;;;5069158;28;20051;-79
2023/07/24 14:18:50;;;;;;;2.17;1.50;;;;;;;;;;5008656;28;20100;-79
2023/07/24 14:21:25;;;;;;;2.25;1.70;;;;;;;;;;4992687;28;20697;-79
2023/07/24 14:24:19;;;;;;;3.25;1.75;;;;;;;;;;5003914;28;20030;-79
2023/07/24 14:27:27;;;;;;;3.63;1.70;;;;;;;;;;5004673;28;20037;-80
2023/07/24 14:30:47;;;;;;;2.53;1.60;;;;;;;;;;5043886;28;20046;-79
2023/07/24 15:07:14;;;;;;;2.63;1.25;;;;;;;;;;5056829;28;20585;-80
2023/07/24 15:13:55;;;;;;;2.60;0.90;;;;;;;;;;5025397;28;20543;-80
2023/07/24 15:30:26;;;;;;;1.20;0.90;;;;;;;;;;4919167;29;20086;-81
2023/07/24 16:03:54;;;;;;;1.10;1.00;;;;;;;;;;4932544;29;20039;-81
2023/07/24 16:09:42;;;;;;;1.88;1.20;;;;;;;;;;5017288;28;20065;-80
2023/07/24 16:32:12;;;;;;;6.15;3.90;;;;;;;;;;5040611;28;20457;-80
2023/07/24 16:35:27;;;;;;;5.00;3.95;;;;;;;;;;5031403;28;20131;-80
2023/07/24 16:39:02;;;;;;;;;;;;;;;;;;;;;
2023/07/24 16:41:56;;;;;;;5.30;4.07;;;;;;;;;;4955130;28;20364;-81
2023/07/24 16:45:11;;;;;;;5.28;4.05;;;;;;;;;;4952497;28;20049;-80
2023/07/24 16:52:02;;;;;;;5.75;3.53;;;;;;;;;;4919176;29;20051;-81
2023/07/24 17:03:59;;;;;;;6.05;3.92;;;;;;;;;;4940952;28;20058;-81
2023/07/24 17:06:31;;;;;;;8.70;4.82;;;;;;;;;;4937886;28;20055;-81
2023/07/24 17:09:41;;;;;;;;;;;;;;;;;;;;;
2023/07/24 17:12:44;;;;;;;5.63;3.78;;;;;;;;;;4981861;28;20049;-81
2023/07/24 17:15:16;;;;;;;7.47;4.75;;;;;;;;;;5043491;28;20021;-81
2023/07/24 17:21:50;;;;;;;;;;;;;;;;;;;;;
2023/07/24 17:27:21;;;;;;;7.15;4.18;;;;;;;;;;5057968;28;20513;-81
2023/07/24 17:36:47;;;;;;;7.57;4.45;;;;;;;;;;5023153;28;20077;-81
2023/07/24 18:34:38;;;;;;;1.38;1.25;;;;;;;;;;5011149;28;20107;-81
2023/07/24 18:37:23;;;;;;;1.70;1.50;;;;;;;;;;5014491;28;20049;-81
2023/07/24 18:43:30;;;;;;;2.10;1.40;;;;;;;;;;5036638;28;20079;-81
2023/07/24 18:53:11;;;;;;;;;;;;;;;;;;;;;
2023/07/24 18:56:02;;;;;;;;;;;;;;;;;;;;;
2023/07/24 19:02:30;;;;;;;2.85;1.20;;;;;;;;;;5043808;28;20084;-81
2023/07/24 19:06:20;;;;;;;1.77;1.20;;;;;;;;;;5045968;28;20804;-81
2023/07/24 19:08:22;;;;;;;;;;;;;;;;;;5021874;28;20049;-82
2023/07/24 19:17:14;;;;;;;3.20;1.30;;;;;;;;;;4907005;29;20123;-81
2023/07/24 19:27:13;;;;;;;2.03;1.30;;;;;;;;;;4979976;28;20051;-81
2023/07/24 19:30:58;;;;;;;;;;;;;;;;;;;;;
2023/07/24 19:34:19;;;;;;;1.60;1.40;;;;;;;;;;4838644;29;21655;-81
2023/07/24 19:40:39;;;;;;;1.98;1.42;;;;;;;;;;4873866;29;20035;-82
2023/07/24 19:43:52;;;;;;;2.97;1.20;;;;;;;;;;4904714;29;20037;-82
2023/07/24 19:46:24;;;;;;;4.38;1.10;;;;;;;;;;4905519;28;20130;-82
2023/07/24 19:55:47;;;;;;;1.58;1.15;;;;;;;;;;4964905;28;20085;-81
2023/07/24 19:59:21;;;;;;;3.03;1.20;;;;;;;;;;4944464;28;20420;-81
2023/07/24 20:08:48;;;;;;;2.83;1.30;;;;;;;;;;4910637;29;20079;-82
2023/07/24 20:12:45;;;;;;;3.88;1.10;;;;;;;;;;4927197;29;20632;-82
2023/07/24 20:14:59;;;;;;;1.98;1.17;;;;;;;;;;4912486;29;20519;-82
2023/07/24 20:17:48;;;;;;;2.10;1.30;;;;;;;;;;4978548;28;20054;-81
2023/07/24 20:20:38;;;;;;;2.42;1.20;;;;;;;;;;4913312;28;20053;-81
2023/07/24 20:24:43;;;;;;;2.70;1.45;;;;;;;;;;4962422;28;20030;-81
2023/07/24 20:26:58;;;;;;;2.10;1.48;;;;;;;;;;5017503;28;20076;-81
2023/07/24 20:40:03;;;;;;;2.33;1.33;;;;;;;;;;4935940;29;20116;-81
2023/07/24 20:46:18;;;;;;;2.03;1.23;;;;;;;;;;4858947;29;20033;-81
2023/07/24 20:49:44;;;;;;;3.90;1.45;;;;;;;;;;4845864;29;20053;-81
2023/07/24 20:52:28;;;;;;;;;;;;;;;;;;;;;
2023/07/24 20:55:16;;;;;;;2.60;1.30;;;;;;;;;;4839104;29;20041;-81
2023/07/24 20:58:14;;;;;;;4.28;1.45;;;;;;;;;;4902535;29;20032;-81
2023/07/24 21:01:33;;;;;;;;;;;;;;;;;;;;;
2023/07/24 21:03:59;;;;;;;3.47;1.30;;;;;;;;;;4921314;29;20070;-81
2023/07/24 21:06:53;;;;;;;4.00;1.33;;;;;;;;;;4924097;29;20074;-81
2023/07/24 21:10:11;;;;;;;4.75;1.13;;;;;;;;;;4937187;28;20122;-81
2023/07/24 21:12:35;;;;;;;7.65;1.98;;;;;;;;;;5035346;28;20032;-81
2023/07/24 21:32:34;;;;;;;4.38;1.40;;;;;;;;;;4864360;29;20559;-81
2023/07/24 21:35:00;;;;;;;4.35;1.30;;;;;;;;;;4881917;28;20039;-81
2023/07/24 21:38:12;;;;;;;2.92;1.40;;;;;;;;;;4926424;28;20098;-81
2023/07/24 21:40:39;;;;;;;7.93;1.55;;;;;;;;;;4949468;28;20484;-81
2023/07/24 21:43:56;;;;;;;3.75;1.40;;;;;;;;;;4955493;28;20035;-81
2023/07/24 21:47:11;;;;;;;4.32;1.60;;;;;;;;;;5012978;28;20056;-81
2023/07/24 21:49:41;;;;;;;3.50;1.40;;;;;;;;;;4997367;28;20053;-81
2023/07/24 21:52:07;;;;;;;3.70;1.30;;;;;;;;;;5011085;28;20053;-81
2023/07/24 21:57:56;;;;;;;3.40;1.23;;;;;;;;;;5077013;28;20043;-81
2023/07/24 22:00:24;;;;;;;3.75;1.58;;;;;;;;;;5073035;28;20051;-81
2023/07/24 22:02:52;;;;;;;2.63;1.48;;;;;;;;;;5068422;28;20047;-81
2023/07/24 22:06:06;;;;;;;3.13;1.45;;;;;;;;;;5076793;28;20385;-81
2023/07/24 22:09:13;;;;;;;3.75;1.80;;;;;;;;;;5076969;28;20051;-81
2023/07/24 22:15:20;;;;;;;4.53;1.85;;;;;;;;;;4974186;28;20535;-81
2023/07/24 22:17:46;;;;;;;6.30;1.80;;;;;;;;;;5050001;28;20036;-81
2023/07/24 22:24:12;;;;;;;4.03;1.55;;;;;;;;;;5011235;28;20056;-81
2023/07/24 22:27:16;;;;;;;5.45;1.50;;;;;;;;;;5063168;28;20044;-81
2023/07/24 22:29:45;;;;;;;3.50;1.58;;;;;;;;;;5053950;28;20125;-81
2023/07/24 22:35:39;;;;;;;2.30;1.45;;;;;;;;;;5072412;28;20062;-81
2023/07/24 22:38:05;;;;;;;5.60;1.65;;;;;;;;;;5068848;28;20044;-81
2023/07/24 22:41:11;;;;;;;4.10;1.65;;;;;;;;;;5072467;28;20040;-81
2023/07/24 22:44:10;;;;;;;4.60;1.48;;;;;;;;;;4960665;28;20053;-81
2023/07/24 22:46:36;;;;;;;3.42;1.65;;;;;;;;;;4998755;28;20118;-81
2023/07/24 22:49:05;;;;;;;2.80;1.90;;;;;;;;;;5059852;28;20119;-81
2023/07/24 22:51:53;;;;;;;2.90;1.50;;;;;;;;;;5081000;28;20040;-81
2023/07/24 22:57:58;;;;;;;3.38;1.58;;;;;;;;;;4994782;28;20083;-81
2023/07/24 23:00:24;;;;;;;2.97;1.58;;;;;;;;;;5077674;28;20158;-81
2023/07/24 23:03:01;;;;;;;4.55;1.60;;;;;;;;;;5072453;28;20107;-82
2023/07/24 23:15:20;;;;;;;4.13;1.67;;;;;;;;;;4874369;29;20033;-81
2023/07/24 23:18:04;;;;;;;5.22;1.55;;;;;;;;;;4867511;29;20585;-81
2023/07/24 23:26:56;;;;;;;5.72;1.90;;;;;;;;;;4961894;28;20101;-81
2023/07/24 23:29:24;;;;;;;3.53;2.10;;;;;;;;;;5016729;28;20045;-81
2023/07/24 23:32:15;;;;;;;7.43;2.25;;;;;;;;;;5056345;28;20051;-81
2023/07/24 23:34:57;;;;;;;6.47;2.15;;;;;;;;;;5061282;28;20040;-81
2023/07/24 23:38:18;;;;;;;6.03;2.20;;;;;;;;;;5046573;28;20024;-81
2023/07/24 23:44:12;;;;;;;3.33;1.80;;;;;;;;;;5047878;28;20036;-81
2023/07/24 23:57:12;;;;;;;8.80;2.40;;;;;;;;;;4816207;29;20080;-81
